sensor_id;sensor_type;location;lat;lon;timestamp;P1;durP1;ratioP1;P2;durP2;ratioP2
11568;SDS011;5840;46.894;15.542;2023-02-19T00:00:56;27.47;;;24.57;;
11568;SDS011;5840;46.894;15.542;2023-02-19T00:03:23;26.30;;;23.60;;
11568;SDS011;5840;46.894;15.542;2023-02-19T00:05:50;25.33;;;22.73;;
11568;SDS011;5840;46.894;15.542;2023-02-19T00:08:17;24.77;;;22.13;;
11568;SDS011;5840;46.894;15.542;2023-02-19T00:10:44;25.03;;;22.33;;
11568;SDS011;5840;46.894;15.542;2023-02-19T00:13:11;25.70;;;23.00;;
11568;SDS011;5840;46.894;15.542;2023-02-19T00:15:38;26.93;;;23.30;;
11568;SDS011;5840;46.894;15.542;2023-02-19T00:18:07;26.77;;;24.07;;
11568;SDS011;5840;46.894;15.542;2023-02-19T00:20:34;25.63;;;23.10;;
11568;SDS011;5840;46.894;15.542;2023-02-19T00:23:01;26.30;;;23.43;;
11568;SDS011;5840;46.894;15.542;2023-02-19T00:25:28;25.70;;;23.07;;
11568;SDS011;5840;46.894;15.542;2023-02-19T00:27:55;24.20;;;21.73;;
11568;SDS011;5840;46.894;15.542;2023-02-19T00:30:22;23.60;;;21.10;;
11568;SDS011;5840;46.894;15.542;2023-02-19T00:32:49;25.57;;;22.03;;
11568;SDS011;5840;46.894;15.542;2023-02-19T00:35:18;24.87;;;22.37;;
11568;SDS011;5840;46.894;15.542;2023-02-19T00:37:45;25.33;;;22.73;;
11568;SDS011;5840;46.894;15.542;2023-02-19T00:40:11;23.67;;;21.27;;
11568;SDS011;5840;46.894;15.542;2023-02-19T00:42:38;23.97;;;21.40;;
11568;SDS011;5840;46.894;15.542;2023-02-19T00:45:06;24.90;;;22.30;;
11568;SDS011;5840;46.894;15.542;2023-02-19T00:47:33;24.40;;;21.80;;
11568;SDS011;5840;46.894;15.542;2023-02-19T00:50:00;24.47;;;22.03;;
11568;SDS011;5840;46.894;15.542;2023-02-19T00:52:28;25.53;;;23.03;;
11568;SDS011;5840;46.894;15.542;2023-02-19T00:54:55;25.80;;;23.10;;
11568;SDS011;5840;46.894;15.542;2023-02-19T00:57:23;24.47;;;21.93;;
11568;SDS011;5840;46.894;15.542;2023-02-19T00:59:49;24.30;;;21.70;;
11568;SDS011;5840;46.894;15.542;2023-02-19T01:02:16;24.27;;;21.87;;
11568;SDS011;5840;46.894;15.542;2023-02-19T01:04:43;24.60;;;21.97;;
11568;SDS011;5840;46.894;15.542;2023-02-19T01:07:10;22.40;;;20.00;;
11568;SDS011;5840;46.894;15.542;2023-02-19T01:09:39;25.67;;;22.50;;
11568;SDS011;5840;46.894;15.542;2023-02-19T01:12:06;23.40;;;20.90;;
11568;SDS011;5840;46.894;15.542;2023-02-19T01:14:33;26.00;;;22.90;;
11568;SDS011;5840;46.894;15.542;2023-02-19T01:17:02;26.43;;;23.63;;
11568;SDS011;5840;46.894;15.542;2023-02-19T01:19:29;24.03;;;21.33;;
11568;SDS011;5840;46.894;15.542;2023-02-19T01:21:56;23.33;;;20.90;;
11568;SDS011;5840;46.894;15.542;2023-02-19T01:24:23;25.07;;;22.47;;
11568;SDS011;5840;46.894;15.542;2023-02-19T01:26:51;27.03;;;23.03;;
11568;SDS011;5840;46.894;15.542;2023-02-19T01:29:18;25.30;;;22.70;;
11568;SDS011;5840;46.894;15.542;2023-02-19T01:31:45;23.37;;;20.97;;
11568;SDS011;5840;46.894;15.542;2023-02-19T01:34:12;24.20;;;21.70;;
11568;SDS011;5840;46.894;15.542;2023-02-19T01:36:39;24.53;;;22.03;;
11568;SDS011;5840;46.894;15.542;2023-02-19T01:39:06;24.03;;;21.63;;
11568;SDS011;5840;46.894;15.542;2023-02-19T01:41:34;24.37;;;21.87;;
11568;SDS011;5840;46.894;15.542;2023-02-19T01:44:05;23.87;;;21.33;;
11568;SDS011;5840;46.894;15.542;2023-02-19T01:46:33;22.67;;;20.37;;
11568;SDS011;5840;46.894;15.542;2023-02-19T01:49:02;24.53;;;22.00;;
11568;SDS011;5840;46.894;15.542;2023-02-19T01:51:33;23.80;;;21.30;;
11568;SDS011;5840;46.894;15.542;2023-02-19T01:54:04;24.10;;;21.40;;
11568;SDS011;5840;46.894;15.542;2023-02-19T01:56:35;24.63;;;22.10;;
11568;SDS011;5840;46.894;15.542;2023-02-19T01:59:06;24.17;;;21.63;;
11568;SDS011;5840;46.894;15.542;2023-02-19T02:01:34;24.30;;;21.90;;
11568;SDS011;5840;46.894;15.542;2023-02-19T02:04:02;23.57;;;21.13;;
11568;SDS011;5840;46.894;15.542;2023-02-19T02:06:33;23.87;;;21.37;;
11568;SDS011;5840;46.894;15.542;2023-02-19T02:09:04;23.70;;;21.20;;
11568;SDS011;5840;46.894;15.542;2023-02-19T02:11:50;24.43;;;21.97;;
11568;SDS011;5840;46.894;15.542;2023-02-19T02:14:20;24.77;;;22.07;;
11568;SDS011;5840;46.894;15.542;2023-02-19T02:16:53;23.93;;;21.43;;
11568;SDS011;5840;46.894;15.542;2023-02-19T02:19:29;23.20;;;20.83;;
11568;SDS011;5840;46.894;15.542;2023-02-19T02:22:09;22.83;;;20.60;;
11568;SDS011;5840;46.894;15.542;2023-02-19T02:27:42;23.97;;;21.40;;
11568;SDS011;5840;46.894;15.542;2023-02-19T02:30:22;27.03;;;24.07;;
11568;SDS011;5840;46.894;15.542;2023-02-19T02:32:58;26.07;;;23.47;;
11568;SDS011;5840;46.894;15.542;2023-02-19T02:35:31;23.53;;;21.13;;
11568;SDS011;5840;46.894;15.542;2023-02-19T02:38:03;23.90;;;21.53;;
11568;SDS011;5840;46.894;15.542;2023-02-19T02:40:32;29.17;;;24.87;;
11568;SDS011;5840;46.894;15.542;2023-02-19T02:43:00;28.03;;;25.20;;
11568;SDS011;5840;46.894;15.542;2023-02-19T02:45:29;26.47;;;23.67;;
11568;SDS011;5840;46.894;15.542;2023-02-19T02:48:00;25.03;;;22.47;;
11568;SDS011;5840;46.894;15.542;2023-02-19T02:50:33;23.93;;;21.53;;
11568;SDS011;5840;46.894;15.542;2023-02-19T02:53:05;25.07;;;22.47;;
11568;SDS011;5840;46.894;15.542;2023-02-19T02:55:53;25.60;;;22.23;;
11568;SDS011;5840;46.894;15.542;2023-02-19T02:58:21;25.07;;;22.57;;
11568;SDS011;5840;46.894;15.542;2023-02-19T03:00:53;24.73;;;22.07;;
11568;SDS011;5840;46.894;15.542;2023-02-19T03:03:40;24.73;;;22.23;;
11568;SDS011;5840;46.894;15.542;2023-02-19T03:06:10;26.30;;;23.70;;
11568;SDS011;5840;46.894;15.542;2023-02-19T03:08:42;26.03;;;23.27;;
11568;SDS011;5840;46.894;15.542;2023-02-19T03:11:13;27.00;;;23.33;;
11568;SDS011;5840;46.894;15.542;2023-02-19T03:13:58;26.90;;;24.00;;
11568;SDS011;5840;46.894;15.542;2023-02-19T03:16:48;24.87;;;22.17;;
11568;SDS011;5840;46.894;15.542;2023-02-19T03:19:37;24.03;;;21.43;;
11568;SDS011;5840;46.894;15.542;2023-02-19T03:22:09;25.00;;;22.40;;
11568;SDS011;5840;46.894;15.542;2023-02-19T03:24:41;26.33;;;23.63;;
11568;SDS011;5840;46.894;15.542;2023-02-19T03:27:35;28.30;;;24.83;;
11568;SDS011;5840;46.894;15.542;2023-02-19T03:30:07;25.17;;;22.47;;
11568;SDS011;5840;46.894;15.542;2023-02-19T03:32:39;28.43;;;25.60;;
11568;SDS011;5840;46.894;15.542;2023-02-19T03:35:10;28.03;;;24.97;;
11568;SDS011;5840;46.894;15.542;2023-02-19T03:37:42;25.83;;;23.23;;
11568;SDS011;5840;46.894;15.542;2023-02-19T03:40:12;25.80;;;22.87;;
11568;SDS011;5840;46.894;15.542;2023-02-19T03:42:41;24.80;;;22.10;;
11568;SDS011;5840;46.894;15.542;2023-02-19T03:45:22;25.23;;;22.57;;
11568;SDS011;5840;46.894;15.542;2023-02-19T03:48:00;25.03;;;22.43;;
11568;SDS011;5840;46.894;15.542;2023-02-19T03:50:40;23.87;;;21.47;;
11568;SDS011;5840;46.894;15.542;2023-02-19T03:53:12;25.43;;;21.17;;
11568;SDS011;5840;46.894;15.542;2023-02-19T03:55:49;23.90;;;21.50;;
11568;SDS011;5840;46.894;15.542;2023-02-19T03:58:29;25.10;;;22.50;;
11568;SDS011;5840;46.894;15.542;2023-02-19T04:01:01;23.40;;;21.20;;
11568;SDS011;5840;46.894;15.542;2023-02-19T04:03:32;23.00;;;20.70;;
11568;SDS011;5840;46.894;15.542;2023-02-19T04:06:06;25.07;;;22.47;;
11568;SDS011;5840;46.894;15.542;2023-02-19T04:08:37;23.20;;;21.00;;
11568;SDS011;5840;46.894;15.542;2023-02-19T04:11:08;23.53;;;21.07;;
11568;SDS011;5840;46.894;15.542;2023-02-19T04:13:37;25.73;;;23.17;;
11568;SDS011;5840;46.894;15.542;2023-02-19T04:16:10;26.60;;;23.90;;
11568;SDS011;5840;46.894;15.542;2023-02-19T04:18:45;25.73;;;23.10;;
11568;SDS011;5840;46.894;15.542;2023-02-19T04:21:16;24.53;;;22.13;;
11568;SDS011;5840;46.894;15.542;2023-02-19T04:23:44;25.27;;;22.57;;
11568;SDS011;5840;46.894;15.542;2023-02-19T04:26:12;25.43;;;22.73;;
11568;SDS011;5840;46.894;15.542;2023-02-19T04:28:42;26.90;;;24.07;;
11568;SDS011;5840;46.894;15.542;2023-02-19T04:31:09;24.80;;;22.30;;
11568;SDS011;5840;46.894;15.542;2023-02-19T04:33:36;25.83;;;23.17;;
11568;SDS011;5840;46.894;15.542;2023-02-19T04:36:05;25.90;;;23.30;;
11568;SDS011;5840;46.894;15.542;2023-02-19T04:38:35;25.70;;;22.63;;
11568;SDS011;5840;46.894;15.542;2023-02-19T04:41:02;26.10;;;23.30;;
11568;SDS011;5840;46.894;15.542;2023-02-19T04:43:29;25.80;;;22.70;;
11568;SDS011;5840;46.894;15.542;2023-02-19T04:45:58;25.20;;;22.50;;
11568;SDS011;5840;46.894;15.542;2023-02-19T04:48:26;27.90;;;25.03;;
11568;SDS011;5840;46.894;15.542;2023-02-19T04:50:53;26.23;;;23.43;;
11568;SDS011;5840;46.894;15.542;2023-02-19T04:53:21;25.83;;;23.17;;
11568;SDS011;5840;46.894;15.542;2023-02-19T04:55:48;28.67;;;23.97;;
11568;SDS011;5840;46.894;15.542;2023-02-19T04:58:17;27.03;;;24.23;;
11568;SDS011;5840;46.894;15.542;2023-02-19T05:00:45;24.93;;;22.33;;
11568;SDS011;5840;46.894;15.542;2023-02-19T05:03:12;25.53;;;22.90;;
11568;SDS011;5840;46.894;15.542;2023-02-19T05:05:39;25.83;;;23.13;;
11568;SDS011;5840;46.894;15.542;2023-02-19T05:08:06;26.77;;;24.10;;
11568;SDS011;5840;46.894;15.542;2023-02-19T05:10:34;25.90;;;23.30;;
11568;SDS011;5840;46.894;15.542;2023-02-19T05:13:01;27.30;;;24.40;;
11568;SDS011;5840;46.894;15.542;2023-02-19T05:15:28;25.77;;;23.07;;
11568;SDS011;5840;46.894;15.542;2023-02-19T05:17:55;24.73;;;22.17;;
11568;SDS011;5840;46.894;15.542;2023-02-19T05:20:22;25.20;;;22.53;;
11568;SDS011;5840;46.894;15.542;2023-02-19T05:22:49;28.23;;;23.60;;
11568;SDS011;5840;46.894;15.542;2023-02-19T05:25:16;27.90;;;24.90;;
11568;SDS011;5840;46.894;15.542;2023-02-19T05:27:44;31.23;;;25.57;;
11568;SDS011;5840;46.894;15.542;2023-02-19T05:30:11;29.37;;;26.23;;
11568;SDS011;5840;46.894;15.542;2023-02-19T05:32:38;30.00;;;26.57;;
11568;SDS011;5840;46.894;15.542;2023-02-19T05:35:05;29.10;;;25.60;;
11568;SDS011;5840;46.894;15.542;2023-02-19T05:37:32;28.17;;;24.80;;
11568;SDS011;5840;46.894;15.542;2023-02-19T05:39:59;28.37;;;25.20;;
11568;SDS011;5840;46.894;15.542;2023-02-19T05:42:26;28.07;;;25.07;;
11568;SDS011;5840;46.894;15.542;2023-02-19T05:44:54;26.40;;;23.70;;
11568;SDS011;5840;46.894;15.542;2023-02-19T05:47:21;27.20;;;24.33;;
11568;SDS011;5840;46.894;15.542;2023-02-19T05:49:48;27.33;;;24.47;;
11568;SDS011;5840;46.894;15.542;2023-02-19T05:52:15;28.43;;;25.43;;
11568;SDS011;5840;46.894;15.542;2023-02-19T05:54:42;24.93;;;22.23;;
11568;SDS011;5840;46.894;15.542;2023-02-19T05:57:09;23.43;;;21.00;;
11568;SDS011;5840;46.894;15.542;2023-02-19T05:59:36;23.20;;;20.80;;
11568;SDS011;5840;46.894;15.542;2023-02-19T06:02:04;23.50;;;21.10;;
11568;SDS011;5840;46.894;15.542;2023-02-19T06:04:31;23.87;;;21.37;;
11568;SDS011;5840;46.894;15.542;2023-02-19T06:06:58;23.57;;;21.10;;
11568;SDS011;5840;46.894;15.542;2023-02-19T06:09:25;23.63;;;21.33;;
11568;SDS011;5840;46.894;15.542;2023-02-19T06:11:52;23.43;;;21.07;;
11568;SDS011;5840;46.894;15.542;2023-02-19T06:14:19;24.13;;;21.67;;
11568;SDS011;5840;46.894;15.542;2023-02-19T06:16:46;22.73;;;20.53;;
11568;SDS011;5840;46.894;15.542;2023-02-19T06:19:14;26.00;;;23.17;;
11568;SDS011;5840;46.894;15.542;2023-02-19T06:21:41;26.90;;;24.07;;
11568;SDS011;5840;46.894;15.542;2023-02-19T06:24:08;26.20;;;23.53;;
11568;SDS011;5840;46.894;15.542;2023-02-19T06:26:35;23.67;;;21.17;;
11568;SDS011;5840;46.894;15.542;2023-02-19T06:29:03;22.67;;;20.37;;
11568;SDS011;5840;46.894;15.542;2023-02-19T06:31:30;22.23;;;19.77;;
11568;SDS011;5840;46.894;15.542;2023-02-19T06:33:57;22.63;;;20.33;;
11568;SDS011;5840;46.894;15.542;2023-02-19T06:36:25;23.47;;;21.03;;
11568;SDS011;5840;46.894;15.542;2023-02-19T06:38:52;23.53;;;21.13;;
11568;SDS011;5840;46.894;15.542;2023-02-19T06:41:19;23.37;;;20.97;;
11568;SDS011;5840;46.894;15.542;2023-02-19T06:43:46;23.93;;;21.43;;
11568;SDS011;5840;46.894;15.542;2023-02-19T06:46:13;23.30;;;20.77;;
11568;SDS011;5840;46.894;15.542;2023-02-19T06:48:40;22.50;;;20.17;;
11568;SDS011;5840;46.894;15.542;2023-02-19T06:51:10;22.77;;;20.40;;
11568;SDS011;5840;46.894;15.542;2023-02-19T06:53:39;20.77;;;18.67;;
11568;SDS011;5840;46.894;15.542;2023-02-19T06:56:07;24.63;;;22.33;;
11568;SDS011;5840;46.894;15.542;2023-02-19T06:58:48;25.20;;;22.60;;
11568;SDS011;5840;46.894;15.542;2023-02-19T07:01:15;24.47;;;22.10;;
11568;SDS011;5840;46.894;15.542;2023-02-19T07:03:42;24.10;;;21.77;;
11568;SDS011;5840;46.894;15.542;2023-02-19T07:06:09;24.93;;;22.50;;
11568;SDS011;5840;46.894;15.542;2023-02-19T07:08:36;23.83;;;21.33;;
11568;SDS011;5840;46.894;15.542;2023-02-19T07:11:05;22.97;;;20.57;;
11568;SDS011;5840;46.894;15.542;2023-02-19T07:13:32;23.00;;;20.43;;
11568;SDS011;5840;46.894;15.542;2023-02-19T07:15:59;25.27;;;22.67;;
11568;SDS011;5840;46.894;15.542;2023-02-19T07:18:28;23.10;;;20.90;;
11568;SDS011;5840;46.894;15.542;2023-02-19T07:21:00;23.73;;;21.40;;
11568;SDS011;5840;46.894;15.542;2023-02-19T07:23:28;23.40;;;20.83;;
11568;SDS011;5840;46.894;15.542;2023-02-19T07:25:55;22.93;;;20.57;;
11568;SDS011;5840;46.894;15.542;2023-02-19T07:28:23;22.73;;;20.53;;
11568;SDS011;5840;46.894;15.542;2023-02-19T07:30:50;23.57;;;21.07;;
11568;SDS011;5840;46.894;15.542;2023-02-19T07:33:18;24.47;;;21.97;;
11568;SDS011;5840;46.894;15.542;2023-02-19T07:35:45;24.50;;;22.03;;
11568;SDS011;5840;46.894;15.542;2023-02-19T07:38:14;22.80;;;20.60;;
11568;SDS011;5840;46.894;15.542;2023-02-19T07:40:48;23.43;;;21.13;;
11568;SDS011;5840;46.894;15.542;2023-02-19T07:43:16;24.03;;;21.53;;
11568;SDS011;5840;46.894;15.542;2023-02-19T07:45:44;22.23;;;20.03;;
11568;SDS011;5840;46.894;15.542;2023-02-19T07:48:11;21.87;;;19.67;;
11568;SDS011;5840;46.894;15.542;2023-02-19T07:50:39;22.73;;;20.47;;
11568;SDS011;5840;46.894;15.542;2023-02-19T07:53:06;21.20;;;19.30;;
11568;SDS011;5840;46.894;15.542;2023-02-19T07:55:33;20.53;;;18.47;;
11568;SDS011;5840;46.894;15.542;2023-02-19T07:58:00;20.87;;;18.90;;
11568;SDS011;5840;46.894;15.542;2023-02-19T08:00:30;21.93;;;19.73;;
11568;SDS011;5840;46.894;15.542;2023-02-19T08:02:58;24.33;;;22.00;;
11568;SDS011;5840;46.894;15.542;2023-02-19T08:05:24;24.13;;;21.73;;
11568;SDS011;5840;46.894;15.542;2023-02-19T08:07:52;24.10;;;21.80;;
11568;SDS011;5840;46.894;15.542;2023-02-19T08:10:19;22.40;;;20.30;;
11568;SDS011;5840;46.894;15.542;2023-02-19T08:13:04;21.77;;;19.67;;
11568;SDS011;5840;46.894;15.542;2023-02-19T08:15:48;22.27;;;20.07;;
11568;SDS011;5840;46.894;15.542;2023-02-19T08:18:18;31.50;;;28.60;;
11568;SDS011;5840;46.894;15.542;2023-02-19T08:20:46;25.63;;;23.23;;
11568;SDS011;5840;46.894;15.542;2023-02-19T08:23:13;31.83;;;28.87;;
11568;SDS011;5840;46.894;15.542;2023-02-19T08:25:40;27.27;;;24.67;;
11568;SDS011;5840;46.894;15.542;2023-02-19T08:28:08;23.57;;;21.27;;
11568;SDS011;5840;46.894;15.542;2023-02-19T08:30:37;22.87;;;20.47;;
11568;SDS011;5840;46.894;15.542;2023-02-19T08:33:05;23.33;;;21.10;;
11568;SDS011;5840;46.894;15.542;2023-02-19T08:35:34;25.20;;;22.80;;
11568;SDS011;5840;46.894;15.542;2023-02-19T08:38:01;24.43;;;22.07;;
11568;SDS011;5840;46.894;15.542;2023-02-19T08:40:29;24.80;;;22.43;;
11568;SDS011;5840;46.894;15.542;2023-02-19T08:43:00;25.67;;;22.97;;
11568;SDS011;5840;46.894;15.542;2023-02-19T08:45:27;25.87;;;23.27;;
11568;SDS011;5840;46.894;15.542;2023-02-19T08:47:54;26.47;;;23.93;;
11568;SDS011;5840;46.894;15.542;2023-02-19T08:50:21;29.03;;;26.13;;
11568;SDS011;5840;46.894;15.542;2023-02-19T08:52:51;26.70;;;24.10;;
11568;SDS011;5840;46.894;15.542;2023-02-19T08:55:18;23.03;;;20.83;;
11568;SDS011;5840;46.894;15.542;2023-02-19T08:57:45;21.77;;;19.73;;
11568;SDS011;5840;46.894;15.542;2023-02-19T09:00:12;23.57;;;21.27;;
11568;SDS011;5840;46.894;15.542;2023-02-19T09:02:40;24.07;;;21.67;;
11568;SDS011;5840;46.894;15.542;2023-02-19T09:05:07;24.10;;;21.80;;
11568;SDS011;5840;46.894;15.542;2023-02-19T09:07:35;21.27;;;19.27;;
11568;SDS011;5840;46.894;15.542;2023-02-19T09:10:04;20.17;;;18.23;;
11568;SDS011;5840;46.894;15.542;2023-02-19T09:12:31;20.97;;;18.87;;
11568;SDS011;5840;46.894;15.542;2023-02-19T09:14:59;21.07;;;19.20;;
11568;SDS011;5840;46.894;15.542;2023-02-19T09:17:26;21.33;;;19.27;;
11568;SDS011;5840;46.894;15.542;2023-02-19T09:19:53;21.43;;;19.33;;
11568;SDS011;5840;46.894;15.542;2023-02-19T09:22:20;19.57;;;17.57;;
11568;SDS011;5840;46.894;15.542;2023-02-19T09:24:47;21.13;;;19.03;;
11568;SDS011;5840;46.894;15.542;2023-02-19T09:27:15;20.63;;;18.60;;
11568;SDS011;5840;46.894;15.542;2023-02-19T09:29:44;20.63;;;18.73;;
11568;SDS011;5840;46.894;15.542;2023-02-19T09:32:11;21.53;;;19.53;;
11568;SDS011;5840;46.894;15.542;2023-02-19T09:34:39;22.37;;;20.07;;
11568;SDS011;5840;46.894;15.542;2023-02-19T09:37:06;22.10;;;19.77;;
11568;SDS011;5840;46.894;15.542;2023-02-19T09:39:34;20.00;;;18.00;;
11568;SDS011;5840;46.894;15.542;2023-02-19T09:42:02;21.17;;;19.07;;
11568;SDS011;5840;46.894;15.542;2023-02-19T09:44:39;19.27;;;17.50;;
11568;SDS011;5840;46.894;15.542;2023-02-19T09:47:12;19.03;;;17.23;;
11568;SDS011;5840;46.894;15.542;2023-02-19T09:49:43;20.23;;;18.33;;
11568;SDS011;5840;46.894;15.542;2023-02-19T09:52:17;19.40;;;17.60;;
11568;SDS011;5840;46.894;15.542;2023-02-19T09:54:49;19.50;;;17.60;;
11568;SDS011;5840;46.894;15.542;2023-02-19T09:57:21;20.00;;;18.03;;
11568;SDS011;5840;46.894;15.542;2023-02-19T09:59:55;18.43;;;16.73;;
11568;SDS011;5840;46.894;15.542;2023-02-19T10:02:27;19.33;;;17.43;;
11568;SDS011;5840;46.894;15.542;2023-02-19T10:04:55;19.27;;;17.57;;
11568;SDS011;5840;46.894;15.542;2023-02-19T10:07:24;19.50;;;17.50;;
11568;SDS011;5840;46.894;15.542;2023-02-19T10:09:59;18.53;;;16.83;;
11568;SDS011;5840;46.894;15.542;2023-02-19T10:12:31;19.67;;;17.87;;
11568;SDS011;5840;46.894;15.542;2023-02-19T10:15:03;18.60;;;16.87;;
11568;SDS011;5840;46.894;15.542;2023-02-19T10:17:36;17.80;;;16.20;;
11568;SDS011;5840;46.894;15.542;2023-02-19T10:20:03;20.03;;;18.13;;
11568;SDS011;5840;46.894;15.542;2023-02-19T10:22:30;19.40;;;17.60;;
11568;SDS011;5840;46.894;15.542;2023-02-19T10:25:01;18.43;;;16.77;;
11568;SDS011;5840;46.894;15.542;2023-02-19T10:27:29;18.43;;;16.53;;
11568;SDS011;5840;46.894;15.542;2023-02-19T10:29:57;16.93;;;15.43;;
11568;SDS011;5840;46.894;15.542;2023-02-19T10:32:27;19.70;;;17.90;;
11568;SDS011;5840;46.894;15.542;2023-02-19T10:35:08;17.60;;;16.03;;
11568;SDS011;5840;46.894;15.542;2023-02-19T10:37:40;18.13;;;16.43;;
11568;SDS011;5840;46.894;15.542;2023-02-19T10:40:11;16.87;;;15.30;;
11568;SDS011;5840;46.894;15.542;2023-02-19T10:42:44;16.90;;;15.40;;
11568;SDS011;5840;46.894;15.542;2023-02-19T10:45:15;18.17;;;16.47;;
11568;SDS011;5840;46.894;15.542;2023-02-19T10:47:46;18.47;;;16.83;;
11568;SDS011;5840;46.894;15.542;2023-02-19T10:50:15;17.67;;;16.17;;
11568;SDS011;5840;46.894;15.542;2023-02-19T10:52:49;18.43;;;16.83;;
11568;SDS011;5840;46.894;15.542;2023-02-19T10:55:24;18.60;;;16.93;;
11568;SDS011;5840;46.894;15.542;2023-02-19T10:57:53;16.63;;;15.23;;
11568;SDS011;5840;46.894;15.542;2023-02-19T11:00:21;17.80;;;16.20;;
11568;SDS011;5840;46.894;15.542;2023-02-19T11:02:58;16.73;;;15.40;;
11568;SDS011;5840;46.894;15.542;2023-02-19T11:05:45;16.20;;;14.90;;
11568;SDS011;5840;46.894;15.542;2023-02-19T11:08:20;17.23;;;15.73;;
11568;SDS011;5840;46.894;15.542;2023-02-19T11:10:48;17.33;;;15.83;;
11568;SDS011;5840;46.894;15.542;2023-02-19T11:13:16;17.63;;;15.87;;
11568;SDS011;5840;46.894;15.542;2023-02-19T11:15:52;17.20;;;15.70;;
11568;SDS011;5840;46.894;15.542;2023-02-19T11:18:22;18.20;;;16.60;;
11568;SDS011;5840;46.894;15.542;2023-02-19T11:20:52;17.43;;;15.80;;
11568;SDS011;5840;46.894;15.542;2023-02-19T11:23:23;16.77;;;15.37;;
11568;SDS011;5840;46.894;15.542;2023-02-19T11:25:53;17.47;;;15.97;;
11568;SDS011;5840;46.894;15.542;2023-02-19T11:28:32;17.27;;;15.67;;
11568;SDS011;5840;46.894;15.542;2023-02-19T11:31:18;16.57;;;15.07;;
11568;SDS011;5840;46.894;15.542;2023-02-19T11:33:53;16.63;;;15.13;;
11568;SDS011;5840;46.894;15.542;2023-02-19T11:36:28;16.43;;;14.93;;
11568;SDS011;5840;46.894;15.542;2023-02-19T11:39:18;16.00;;;14.60;;
11568;SDS011;5840;46.894;15.542;2023-02-19T11:44:45;13.53;;;12.23;;
11568;SDS011;5840;46.894;15.542;2023-02-19T11:50:19;14.67;;;13.43;;
11568;SDS011;5840;46.894;15.542;2023-02-19T11:52:53;15.07;;;13.80;;
11568;SDS011;5840;46.894;15.542;2023-02-19T11:55:34;14.30;;;13.00;;
11568;SDS011;5840;46.894;15.542;2023-02-19T11:58:12;11.33;;;10.33;;
11568;SDS011;5840;46.894;15.542;2023-02-19T12:01:02;12.67;;;11.47;;
11568;SDS011;5840;46.894;15.542;2023-02-19T12:03:40;14.90;;;13.50;;
11568;SDS011;5840;46.894;15.542;2023-02-19T12:06:44;13.67;;;12.50;;
11568;SDS011;5840;46.894;15.542;2023-02-19T12:09:25;12.07;;;11.07;;
11568;SDS011;5840;46.894;15.542;2023-02-19T12:12:07;10.47;;;9.67;;
11568;SDS011;5840;46.894;15.542;2023-02-19T12:14:57;10.37;;;9.47;;
11568;SDS011;5840;46.894;15.542;2023-02-19T12:17:54;11.43;;;10.43;;
11568;SDS011;5840;46.894;15.542;2023-02-19T12:20:59;10.37;;;9.47;;
11568;SDS011;5840;46.894;15.542;2023-02-19T12:23:42;10.07;;;9.27;;
11568;SDS011;5840;46.894;15.542;2023-02-19T12:26:22;9.07;;;8.27;;
11568;SDS011;5840;46.894;15.542;2023-02-19T12:29:04;7.93;;;7.20;;
11568;SDS011;5840;46.894;15.542;2023-02-19T12:32:02;8.33;;;7.73;;
11568;SDS011;5840;46.894;15.542;2023-02-19T12:34:46;6.37;;;5.93;;
11568;SDS011;5840;46.894;15.542;2023-02-19T12:37:36;8.80;;;8.00;;
11568;SDS011;5840;46.894;15.542;2023-02-19T12:40:20;5.63;;;5.07;;
11568;SDS011;5840;46.894;15.542;2023-02-19T12:42:59;4.30;;;3.23;;
11568;SDS011;5840;46.894;15.542;2023-02-19T12:45:37;4.00;;;2.00;;
11568;SDS011;5840;46.894;15.542;2023-02-19T12:48:12;2.17;;;1.10;;
11568;SDS011;5840;46.894;15.542;2023-02-19T12:50:45;0.50;;;0.50;;
11568;SDS011;5840;46.894;15.542;2023-02-19T12:53:23;1.17;;;0.80;;
11568;SDS011;5840;46.894;15.542;2023-02-19T12:56:07;0.83;;;0.37;;
11568;SDS011;5840;46.894;15.542;2023-02-19T12:58:40;0.73;;;0.50;;
11568;SDS011;5840;46.894;15.542;2023-02-19T13:01:13;1.37;;;0.50;;
11568;SDS011;5840;46.894;15.542;2023-02-19T13:03:47;0.43;;;0.43;;
11568;SDS011;5840;46.894;15.542;2023-02-19T13:06:23;1.63;;;1.53;;
11568;SDS011;5840;46.894;15.542;2023-02-19T13:08:59;0.63;;;0.63;;
11568;SDS011;5840;46.894;15.542;2023-02-19T13:11:35;1.50;;;0.50;;
11568;SDS011;5840;46.894;15.542;2023-02-19T13:14:05;0.40;;;0.40;;
11568;SDS011;5840;46.894;15.542;2023-02-19T13:16:43;0.30;;;0.30;;
11568;SDS011;5840;46.894;15.542;2023-02-19T13:19:13;0.50;;;0.50;;
11568;SDS011;5840;46.894;15.542;2023-02-19T13:21:41;0.40;;;0.40;;
11568;SDS011;5840;46.894;15.542;2023-02-19T13:24:31;0.90;;;0.90;;
11568;SDS011;5840;46.894;15.542;2023-02-19T13:27:10;0.40;;;0.40;;
11568;SDS011;5840;46.894;15.542;2023-02-19T13:29:52;0.47;;;0.40;;
11568;SDS011;5840;46.894;15.542;2023-02-19T13:32:52;1.07;;;0.50;;
11568;SDS011;5840;46.894;15.542;2023-02-19T13:35:32;0.40;;;0.40;;
11568;SDS011;5840;46.894;15.542;2023-02-19T13:38:19;1.53;;;0.40;;
11568;SDS011;5840;46.894;15.542;2023-02-19T13:40:52;0.50;;;0.50;;
11568;SDS011;5840;46.894;15.542;2023-02-19T13:43:23;0.50;;;0.50;;
11568;SDS011;5840;46.894;15.542;2023-02-19T13:45:53;0.50;;;0.50;;
11568;SDS011;5840;46.894;15.542;2023-02-19T13:48:27;0.60;;;0.60;;
11568;SDS011;5840;46.894;15.542;2023-02-19T13:54:03;0.73;;;0.50;;
11568;SDS011;5840;46.894;15.542;2023-02-19T13:56:46;0.40;;;0.40;;
11568;SDS011;5840;46.894;15.542;2023-02-19T13:59:24;0.50;;;0.50;;
11568;SDS011;5840;46.894;15.542;2023-02-19T14:02:09;0.50;;;0.50;;
11568;SDS011;5840;46.894;15.542;2023-02-19T14:04:41;0.63;;;0.40;;
11568;SDS011;5840;46.894;15.542;2023-02-19T14:07:19;0.70;;;0.70;;
11568;SDS011;5840;46.894;15.542;2023-02-19T14:10:00;0.50;;;0.50;;
11568;SDS011;5840;46.894;15.542;2023-02-19T14:12:33;0.63;;;0.40;;
11568;SDS011;5840;46.894;15.542;2023-02-19T14:21:13;0.47;;;0.47;;
11568;SDS011;5840;46.894;15.542;2023-02-19T14:23:44;0.50;;;0.50;;
11568;SDS011;5840;46.894;15.542;2023-02-19T14:26:19;0.50;;;0.50;;
11568;SDS011;5840;46.894;15.542;2023-02-19T14:28:48;0.77;;;0.77;;
11568;SDS011;5840;46.894;15.542;2023-02-19T14:31:31;0.53;;;0.53;;
11568;SDS011;5840;46.894;15.542;2023-02-19T14:34:02;0.60;;;0.60;;
11568;SDS011;5840;46.894;15.542;2023-02-19T14:36:33;0.40;;;0.40;;
11568;SDS011;5840;46.894;15.542;2023-02-19T14:39:10;0.50;;;0.50;;
11568;SDS011;5840;46.894;15.542;2023-02-19T14:41:40;0.60;;;0.60;;
11568;SDS011;5840;46.894;15.542;2023-02-19T14:44:14;1.30;;;0.60;;
11568;SDS011;5840;46.894;15.542;2023-02-19T14:46:55;0.60;;;0.60;;
11568;SDS011;5840;46.894;15.542;2023-02-19T14:49:26;0.60;;;0.60;;
11568;SDS011;5840;46.894;15.542;2023-02-19T14:51:57;0.50;;;0.50;;
11568;SDS011;5840;46.894;15.542;2023-02-19T14:54:33;0.60;;;0.60;;
11568;SDS011;5840;46.894;15.542;2023-02-19T14:57:06;0.67;;;0.67;;
11568;SDS011;5840;46.894;15.542;2023-02-19T14:59:50;0.50;;;0.50;;
11568;SDS011;5840;46.894;15.542;2023-02-19T15:02:21;0.60;;;0.60;;
11568;SDS011;5840;46.894;15.542;2023-02-19T15:04:50;0.70;;;0.70;;
11568;SDS011;5840;46.894;15.542;2023-02-19T15:07:19;0.70;;;0.70;;
11568;SDS011;5840;46.894;15.542;2023-02-19T15:09:50;0.50;;;0.50;;